Time;durP1;ratioP1;P1;durP2;ratioP2;P2;SDS_P1;SDS_P2;PMS_P1;PMS_P2;Temp;Humidity;BMP_temperature;BMP_pressure;BME280_temperature;BME280_humidity;BME280_pressure;Samples;Min_cycle;Max_cycle;Signal;HPM_P1;HPM_P2
2021/04/23 00:01:21;;;;;;;11.63;3.70;;;5.20;99.90;;;;;;4362623;32;20079;-59
2021/04/23 00:03:56;;;;;;;17.17;4.37;;;5.20;99.90;;;;;;4350400;32;20063;-59
2021/04/23 00:06:33;;;;;;;16.23;4.78;;;5.20;99.90;;;;;;4374953;32;20150;-59
2021/04/23 00:09:16;;;;;;;14.77;6.20;;;5.20;99.90;;;;;;4349885;32;20085;-59
2021/04/23 00:12:01;;;;;;;14.20;4.37;;;5.20;99.90;;;;;;4374843;32;20181;-59
2021/04/23 00:14:32;;;;;;;23.60;5.30;;;5.10;99.90;;;;;;4356971;32;20077;-59
2021/04/23 00:16:59;;;;;;;17.20;4.43;;;5.10;99.90;;;;;;4338502;32;20074;-59
2021/04/23 00:19:26;;;;;;;17.17;4.72;;;5.20;99.90;;;;;;4376946;32;20081;-61
2021/04/23 00:21:52;;;;;;;19.25;4.85;;;5.20;99.90;;;;;;4365311;32;20073;-59
2021/04/23 00:24:19;;;;;;;15.48;4.97;;;5.20;99.90;;;;;;4365902;32;20078;-59
2021/04/23 00:26:45;;;;;;;13.80;4.45;;;5.30;99.90;;;;;;4365511;32;20151;-59
2021/04/23 00:29:11;;;;;;;24.50;4.95;;;5.20;99.90;;;;;;4404761;32;20092;-59
2021/04/23 00:31:38;;;;;;;21.65;4.78;;;5.20;99.90;;;;;;4355983;32;20109;-60
2021/04/23 00:34:04;;;;;;;14.80;4.62;;;5.20;99.90;;;;;;4380313;32;20093;-59
2021/04/23 00:36:31;;;;;;;15.88;5.20;;;5.20;99.90;;;;;;4355689;32;20170;-59
2021/04/23 00:38:57;;;;;;;15.77;5.47;;;5.10;99.90;;;;;;4380711;32;20085;-59
2021/04/23 00:41:28;;;;;;;16.27;6.15;;;5.00;99.90;;;;;;4380341;32;20165;-59
2021/04/23 00:43:57;;;;;;;14.48;5.43;;;5.00;99.90;;;;;;4392516;32;20093;-59
2021/04/23 00:46:32;;;;;;;17.48;5.85;;;5.00;99.90;;;;;;4392263;32;20141;-59
2021/04/23 00:48:59;;;;;;;14.70;4.80;;;5.10;99.90;;;;;;4380286;32;20108;-59
2021/04/23 00:51:32;;;;;;;17.05;5.25;;;5.00;99.90;;;;;;4367504;32;20495;-59
2021/04/23 00:53:59;;;;;;;12.15;4.65;;;4.90;99.90;;;;;;4379934;32;20080;-61
2021/04/23 00:56:34;;;;;;;17.80;5.50;;;4.90;99.90;;;;;;4367384;32;20089;-61
2021/04/23 00:59:03;;;;;;;19.62;5.43;;;5.00;99.90;;;;;;4391994;32;20074;-60
2021/04/23 01:01:40;;;;;;;20.52;6.03;;;4.90;99.90;;;;;;4380560;32;20533;-59
2021/04/23 01:04:12;;;;;;;15.10;5.22;;;4.80;99.90;;;;;;4380201;32;20074;-59
2021/04/23 01:06:38;;;;;;;19.48;5.60;;;4.80;99.90;;;;;;4392331;32;20077;-60
2021/04/23 01:09:12;;;;;;;20.35;5.30;;;4.90;99.90;;;;;;4392497;32;20073;-60
2021/04/23 01:11:39;;;;;;;15.23;4.95;;;4.90;99.90;;;;;;4379940;32;20089;-60
2021/04/23 01:14:05;;;;;;;16.02;5.15;;;4.90;99.90;;;;;;4379893;32;20070;-60
2021/04/23 01:16:31;;;;;;;21.37;5.35;;;4.90;99.90;;;;;;4367657;32;20091;-59
2021/04/23 01:18:58;;;;;;;15.75;5.07;;;4.90;99.90;;;;;;4367201;32;20081;-59
2021/04/23 01:21:27;;;;;;;12.27;4.87;;;4.80;99.90;;;;;;4367316;32;20166;-59
2021/04/23 01:23:55;;;;;;;20.83;6.28;;;4.70;99.90;;;;;;4367793;32;20070;-60
2021/04/23 01:26:24;;;;;;;19.85;5.15;;;4.70;99.90;;;;;;4367348;32;20179;-59
2021/04/23 01:28:51;;;;;;;18.27;5.32;;;4.80;99.90;;;;;;4354867;32;20460;-59
2021/04/23 01:31:21;;;;;;;19.45;5.35;;;4.80;99.90;;;;;;4364402;32;20074;-59
2021/04/23 01:33:50;;;;;;;16.85;5.00;;;4.90;99.90;;;;;;4376646;32;20549;-60
2021/04/23 01:36:17;;;;;;;17.98;5.20;;;4.90;99.90;;;;;;4376927;32;20057;-59
2021/04/23 01:38:46;;;;;;;20.45;5.62;;;5.00;99.90;;;;;;4377075;32;20081;-58
2021/04/23 01:41:13;;;;;;;21.02;5.28;;;5.10;99.90;;;;;;4364265;32;20089;-60
2021/04/23 01:43:39;;;;;;;18.10;5.50;;;5.20;99.90;;;;;;4364639;32;20070;-60
2021/04/23 01:46:06;;;;;;;14.32;4.82;;;5.10;99.90;;;;;;4376745;32;20511;-59
2021/04/23 01:48:33;;;;;;;14.40;5.25;;;5.10;99.90;;;;;;4364285;32;20465;-59
2021/04/23 01:51:01;;;;;;;15.38;5.40;;;5.00;99.90;;;;;;4364407;32;20074;-60
2021/04/23 01:53:27;;;;;;;15.45;4.87;;;4.90;99.90;;;;;;4363919;32;20080;-58
2021/04/23 01:55:54;;;;;;;12.98;5.53;;;5.00;99.90;;;;;;4377001;32;20069;-60
2021/04/23 01:58:20;;;;;;;25.02;5.15;;;4.90;99.90;;;;;;4376628;32;20074;-60
2021/04/23 02:00:49;;;;;;;18.00;5.47;;;4.90;99.90;;;;;;4352852;32;20163;-59
2021/04/23 02:03:15;;;;;;;18.02;5.03;;;4.90;99.90;;;;;;4365629;32;20143;-59
2021/04/23 02:05:42;;;;;;;19.00;6.07;;;4.80;99.90;;;;;;4353711;32;20074;-59
2021/04/23 02:08:10;;;;;;;16.67;5.57;;;4.90;99.90;;;;;;4352077;32;20532;-60
2021/04/23 02:10:49;;;;;;;25.90;5.68;;;5.00;99.90;;;;;;4364105;32;20089;-58
2021/04/23 02:13:21;;;;;;;18.55;5.15;;;5.00;99.90;;;;;;4377802;32;20083;-59
2021/04/23 02:15:48;;;;;;;22.42;5.53;;;5.10;99.90;;;;;;4379963;32;20069;-60
2021/04/23 02:18:14;;;;;;;15.93;5.78;;;5.10;99.90;;;;;;4391101;32;20492;-60
2021/04/23 02:20:40;;;;;;;17.77;5.05;;;5.20;99.90;;;;;;4379156;32;20085;-59
2021/04/23 02:23:08;;;;;;;24.98;5.70;;;5.10;99.90;;;;;;4378771;32;20066;-59
2021/04/23 02:25:36;;;;;;;16.58;5.37;;;5.10;99.90;;;;;;4391049;32;20496;-59
2021/04/23 02:28:04;;;;;;;16.40;5.28;;;5.10;99.90;;;;;;4379130;32;20169;-58
2021/04/23 02:30:40;;;;;;;16.98;6.15;;;5.20;99.90;;;;;;4379096;32;20159;-59
2021/04/23 02:33:07;;;;;;;23.27;5.80;;;5.20;99.90;;;;;;4400295;32;20125;-58
2021/04/23 02:35:34;;;;;;;22.58;5.85;;;5.30;99.90;;;;;;4384113;32;20158;-60
2021/04/23 02:38:00;;;;;;;22.45;5.95;;;5.40;99.90;;;;;;4366971;32;20069;-58
2021/04/23 02:40:27;;;;;;;21.55;5.65;;;5.40;99.90;;;;;;4365913;32;20069;-60
2021/04/23 02:42:56;;;;;;;29.45;6.35;;;5.40;99.90;;;;;;4366105;32;20099;-59
2021/04/23 02:45:25;;;;;;;18.77;5.40;;;5.40;99.90;;;;;;4365800;32;20090;-59
2021/04/23 02:47:52;;;;;;;24.15;5.90;;;5.40;99.90;;;;;;4365478;32;20535;-59
2021/04/23 02:50:22;;;;;;;21.92;6.55;;;5.50;99.90;;;;;;4378018;32;20519;-59
2021/04/23 02:52:48;;;;;;;20.45;5.20;;;5.40;99.90;;;;;;4378482;32;20065;-60
2021/04/23 02:55:15;;;;;;;27.15;6.80;;;5.50;99.90;;;;;;4390830;32;20070;-59
2021/04/23 02:57:52;;;;;;;18.62;5.43;;;5.70;99.90;;;;;;4377706;32;20085;-60
2021/04/23 03:00:19;;;;;;;21.42;4.97;;;5.80;99.90;;;;;;4379141;32;20072;-59
2021/04/23 03:02:46;;;;;;;22.95;5.97;;;5.90;99.90;;;;;;4378465;32;20070;-60
2021/04/23 03:05:13;;;;;;;21.87;5.37;;;5.90;99.90;;;;;;4378451;32;20489;-60
2021/04/23 03:07:39;;;;;;;19.35;5.85;;;6.10;99.90;;;;;;4377807;32;20148;-59
2021/04/23 03:10:06;;;;;;;25.55;5.75;;;6.10;99.90;;;;;;4390750;32;20057;-60
2021/04/23 03:12:32;;;;;;;29.50;6.45;;;6.20;99.90;;;;;;4353010;32;20444;-60
2021/04/23 03:14:59;;;;;;;17.42;6.07;;;6.30;99.90;;;;;;4365750;32;20085;-60
2021/04/23 03:17:25;;;;;;;30.08;6.25;;;6.40;99.90;;;;;;4363076;32;20086;-58
2021/04/23 03:19:51;;;;;;;27.55;7.78;;;6.30;99.90;;;;;;4375686;32;20586;-60
2021/04/23 03:22:18;;;;;;;25.10;6.03;;;6.40;99.90;;;;;;4351290;32;20109;-59
2021/04/23 03:24:44;;;;;;;26.92;5.62;;;6.60;99.90;;;;;;4375651;32;20083;-59
2021/04/23 03:27:10;;;;;;;28.73;5.90;;;6.90;99.90;;;;;;4377031;32;20507;-60
2021/04/23 03:29:37;;;;;;;22.70;5.60;;;6.70;99.90;;;;;;4365411;32;20077;-59
2021/04/23 03:32:03;;;;;;;24.87;6.30;;;6.60;99.90;;;;;;4377728;32;20065;-59
2021/04/23 03:34:29;;;;;;;22.37;6.53;;;6.50;99.90;;;;;;4377801;32;20097;-60
2021/04/23 03:36:56;;;;;;;20.25;6.10;;;6.90;99.90;;;;;;4391992;32;20068;-60
2021/04/23 03:39:23;;;;;;;23.35;6.75;;;7.10;99.90;;;;;;4378135;32;20512;-59
2021/04/23 03:41:49;;;;;;;23.20;6.60;;;7.00;99.90;;;;;;4390428;32;20082;-60
2021/04/23 03:44:15;;;;;;;25.52;5.47;;;7.10;99.90;;;;;;4389923;32;20062;-59
2021/04/23 03:46:41;;;;;;;27.33;6.05;;;6.90;99.90;;;;;;4364968;32;20516;-59
2021/04/23 03:49:08;;;;;;;20.10;5.43;;;6.90;99.90;;;;;;4389910;32;20500;-60
2021/04/23 03:51:34;;;;;;;23.08;5.45;;;6.70;99.90;;;;;;4389946;32;20109;-60
2021/04/23 03:54:00;;;;;;;18.20;5.00;;;6.70;99.90;;;;;;4377062;32;20124;-60
2021/04/23 03:56:26;;;;;;;17.48;4.70;;;6.60;99.90;;;;;;4389935;32;20243;-59
2021/04/23 03:58:53;;;;;;;26.83;5.65;;;6.60;99.90;;;;;;4365873;32;20078;-59
2021/04/23 04:01:22;;;;;;;36.53;6.70;;;6.80;99.90;;;;;;4377607;32;20074;-59
2021/04/23 04:03:49;;;;;;;23.60;5.85;;;7.00;99.90;;;;;;4390345;32;20499;-59
2021/04/23 04:06:15;;;;;;;25.25;5.95;;;7.30;99.90;;;;;;4377360;32;20075;-60
2021/04/23 04:08:41;;;;;;;32.63;6.87;;;7.30;99.90;;;;;;4377373;32;20518;-60
2021/04/23 04:11:08;;;;;;;19.77;5.30;;;7.30;99.90;;;;;;4378021;32;20146;-60
2021/04/23 04:13:34;;;;;;;26.02;6.47;;;7.40;99.90;;;;;;4386088;32;20449;-60
2021/04/23 04:16:01;;;;;;;22.02;5.90;;;7.30;99.90;;;;;;4349977;32;20096;-60
2021/04/23 04:18:27;;;;;;;24.08;6.37;;;7.40;99.90;;;;;;4350279;32;20085;-60
2021/04/23 04:20:54;;;;;;;23.10;5.80;;;7.30;99.90;;;;;;4349705;32;20099;-60
2021/04/23 04:23:21;;;;;;;20.88;6.28;;;7.70;99.90;;;;;;4349911;32;20082;-59
2021/04/23 04:25:50;;;;;;;36.70;7.15;;;7.70;99.90;;;;;;4362223;32;20076;-61
2021/04/23 04:28:17;;;;;;;27.90;6.53;;;7.90;99.90;;;;;;4358264;32;20182;-60
2021/04/23 04:30:44;;;;;;;24.85;6.50;;;7.80;99.90;;;;;;4364919;32;20069;-59
2021/04/23 04:33:10;;;;;;;29.42;6.22;;;8.00;99.90;;;;;;4377010;32;20094;-60
2021/04/23 04:35:37;;;;;;;23.12;7.03;;;8.30;99.90;;;;;;4377383;32;20594;-58
2021/04/23 04:38:07;;;;;;;24.48;6.25;;;8.40;99.90;;;;;;4377897;32;20096;-59
2021/04/23 04:40:34;;;;;;;22.60;7.05;;;8.50;99.90;;;;;;4377698;32;20074;-59
2021/04/23 04:43:00;;;;;;;15.60;4.62;;;8.50;99.90;;;;;;4364682;32;20074;-59
2021/04/23 04:45:27;;;;;;;24.63;5.62;;;8.80;99.90;;;;;;4377234;32;20500;-59
2021/04/23 04:47:54;;;;;;;20.92;5.50;;;9.60;99.90;;;;;;4364684;32;20092;-59
2021/04/23 04:50:34;;;;;;;24.85;5.95;;;10.40;99.90;;;;;;4364577;32;20074;-59
2021/04/23 04:53:03;;;;;;;21.50;6.00;;;10.80;99.90;;;;;;4390267;32;20145;-60
2021/04/23 04:55:32;;;;;;;28.40;7.18;;;10.60;99.90;;;;;;4377220;32;20489;-61
2021/04/23 04:57:59;;;;;;;28.58;6.45;;;10.50;99.90;;;;;;4375928;32;20497;-60
2021/04/23 05:00:26;;;;;;;27.10;7.68;;;10.40;99.90;;;;;;4362186;32;20066;-61
2021/04/23 05:02:53;;;;;;;23.35;6.68;;;11.00;99.90;;;;;;4349954;32;20440;-60
2021/04/23 05:05:19;;;;;;;23.98;6.00;;;11.20;99.90;;;;;;4351681;32;20058;-60
2021/04/23 05:07:45;;;;;;;27.85;6.55;;;10.90;99.90;;;;;;4364569;32;20157;-59
2021/04/23 05:10:12;;;;;;;25.23;6.35;;;11.40;99.90;;;;;;4365280;32;20150;-60
2021/04/23 05:12:39;;;;;;;29.17;7.00;;;11.20;99.90;;;;;;4352397;32;20146;-60
2021/04/23 05:15:07;;;;;;;25.33;5.95;;;11.30;99.90;;;;;;4365378;32;20073;-60
2021/04/23 05:17:34;;;;;;;21.52;5.87;;;11.40;99.90;;;;;;4380276;32;20186;-59
2021/04/23 05:20:00;;;;;;;26.67;6.07;;;11.40;99.90;;;;;;4380793;32;20083;-59
2021/04/23 05:22:26;;;;;;;33.03;6.47;;;12.50;99.90;;;;;;4396160;32;20062;-59
2021/04/23 05:24:53;;;;;;;20.25;5.90;;;11.90;99.90;;;;;;4384923;32;20074;-60
2021/04/23 05:27:19;;;;;;;23.05;6.00;;;12.20;99.90;;;;;;4380226;32;20162;-59
2021/04/23 05:29:45;;;;;;;29.98;5.20;;;12.00;99.90;;;;;;4383799;32;20424;-59
2021/04/23 05:32:11;;;;;;;22.75;4.78;;;12.40;99.90;;;;;;4368268;32;20069;-60
2021/04/23 05:34:38;;;;;;;37.22;7.15;;;12.50;99.90;;;;;;4379107;32;20144;-59
2021/04/23 05:37:09;;;;;;;23.02;5.32;;;12.30;99.90;;;;;;4366708;32;20070;-60
2021/04/23 05:39:37;;;;;;;25.27;6.45;;;12.20;99.90;;;;;;4379455;32;20088;-60
2021/04/23 05:42:05;;;;;;;21.60;5.65;;;12.30;99.90;;;;;;4379005;32;20097;-59
2021/04/23 05:44:31;;;;;;;23.73;5.65;;;12.70;99.90;;;;;;4379076;32;20069;-59
2021/04/23 05:46:57;;;;;;;25.90;5.32;;;13.20;99.90;;;;;;4379273;32;20087;-59
2021/04/23 05:49:23;;;;;;;14.57;5.05;;;12.90;99.90;;;;;;4379533;32;20069;-59
2021/04/23 05:51:50;;;;;;;28.92;6.12;;;13.00;99.90;;;;;;4391585;32;20078;-59
2021/04/23 05:54:16;;;;;;;36.65;7.35;;;13.30;99.90;;;;;;4366611;32;20084;-59
2021/04/23 05:56:43;;;;;;;37.40;7.18;;;13.00;99.90;;;;;;4366866;32;20567;-59
2021/04/23 05:59:09;;;;;;;22.50;6.22;;;12.70;99.90;;;;;;4392178;32;20085;-58
2021/04/23 06:01:35;;;;;;;30.15;7.80;;;12.40;99.90;;;;;;4354737;32;20066;-58
2021/04/23 06:04:01;;;;;;;35.03;7.78;;;12.20;99.90;;;;;;4379940;32;20503;-59
2021/04/23 06:06:27;;;;;;;33.70;8.63;;;12.40;99.90;;;;;;4379826;32;20070;-58
2021/04/23 06:08:53;;;;;;;43.03;8.38;;;12.50;99.90;;;;;;4371625;32;20171;-59
2021/04/23 06:11:21;;;;;;;30.35;7.53;;;12.50;99.90;;;;;;4381751;32;20070;-58
2021/04/23 06:13:47;;;;;;;34.83;7.05;;;12.90;99.90;;;;;;4373941;32;20073;-58
2021/04/23 06:16:14;;;;;;;30.88;6.97;;;13.60;99.90;;;;;;4375839;32;20063;-58
2021/04/23 06:18:41;;;;;;;30.77;6.90;;;13.80;99.90;;;;;;4363491;32;20082;-58
2021/04/23 06:21:08;;;;;;;36.05;7.65;;;12.40;99.90;;;;;;4351545;32;20161;-58
2021/04/23 06:23:38;;;;;;;30.80;8.93;;;11.60;99.90;;;;;;4376092;32;20062;-58
2021/04/23 06:26:04;;;;;;;31.58;7.90;;;11.60;99.90;;;;;;4376079;32;20066;-59
2021/04/23 06:28:31;;;;;;;26.20;6.85;;;11.60;99.90;;;;;;4376118;32;20279;-59
2021/04/23 06:30:57;;;;;;;30.25;7.53;;;11.60;99.90;;;;;;4363903;32;20080;-58
2021/04/23 06:33:28;;;;;;;35.03;10.07;;;11.70;99.90;;;;;;4362582;32;20085;-58
2021/04/23 06:36:02;;;;;;;30.33;7.65;;;11.80;99.90;;;;;;4375659;32;20565;-59
2021/04/23 06:38:31;;;;;;;35.65;8.48;;;11.80;99.90;;;;;;4351391;32;20062;-59
2021/04/23 06:40:57;;;;;;;41.83;9.60;;;12.30;99.90;;;;;;4365187;32;20145;-58
2021/04/23 06:43:24;;;;;;;34.67;7.85;;;12.70;99.90;;;;;;4372927;32;20089;-59
2021/04/23 06:46:01;;;;;;;41.95;8.65;;;13.00;99.90;;;;;;4365741;32;20068;-59
2021/04/23 06:48:29;;;;;;;30.92;6.57;;;12.50;99.90;;;;;;4347626;32;20075;-59
2021/04/23 06:50:56;;;;;;;35.78;8.98;;;13.10;99.90;;;;;;4360543;32;20066;-59
2021/04/23 06:53:23;;;;;;;50.58;12.95;;;12.60;99.90;;;;;;4361229;32;20484;-59
2021/04/23 06:55:50;;;;;;;45.90;13.10;;;12.50;99.90;;;;;;4370838;32;20569;-59
2021/04/23 06:58:16;;;;;;;33.85;10.20;;;12.20;99.90;;;;;;4358214;32;20078;-59
2021/04/23 07:00:43;;;;;;;58.47;13.57;;;12.80;99.90;;;;;;4376937;32;20159;-60
2021/04/23 07:03:10;;;;;;;38.65;8.70;;;12.90;99.90;;;;;;4359295;32;20086;-61
2021/04/23 07:05:39;;;;;;;60.63;13.85;;;12.80;99.90;;;;;;4387293;32;20464;-61
2021/04/23 07:08:05;;;;;;;45.17;12.35;;;12.80;99.90;;;;;;4378633;32;20105;-61
2021/04/23 07:10:32;;;;;;;54.88;13.02;;;12.80;99.90;;;;;;4360978;32;20070;-59
2021/04/23 07:12:58;;;;;;;51.40;11.75;;;12.70;99.90;;;;;;4392548;32;20074;-60
2021/04/23 07:15:27;;;;;;;55.70;13.18;;;13.40;98.40;;;;;;4351228;32;20082;-60
2021/04/23 07:17:57;;;;;;;54.60;11.48;;;13.30;99.60;;;;;;4375406;32;20133;-59
2021/04/23 07:20:25;;;;;;;49.10;11.35;;;13.10;96.30;;;;;;4360573;32;20472;-59
2021/04/23 07:22:53;;;;;;;46.80;10.63;;;12.80;93.20;;;;;;4386707;32;20590;-59
2021/04/23 07:25:20;;;;;;;54.20;13.25;;;12.80;92.10;;;;;;4382619;32;20073;-59
2021/04/23 07:27:46;;;;;;;48.15;10.98;;;13.30;91.70;;;;;;4357619;32;20089;-61
2021/04/23 07:30:25;;;;;;;43.83;10.45;;;13.40;91.10;;;;;;4379776;32;20508;-58
2021/04/23 07:32:51;;;;;;;63.22;19.20;;;13.90;87.90;;;;;;4373652;32;20070;-60
2021/04/23 07:35:17;;;;;;;42.33;13.20;;;13.40;92.50;;;;;;4381650;32;20097;-59
2021/04/23 07:37:44;;;;;;;27.67;11.45;;;13.30;92.60;;;;;;4390976;32;20090;-60
2021/04/23 07:40:12;;;;;;;47.15;15.20;;;13.50;92.60;;;;;;4387779;32;20074;-59
2021/04/23 07:42:38;;;;;;;62.58;16.05;;;13.10;99.60;;;;;;4377764;32;20093;-58
2021/04/23 07:45:06;;;;;;;48.97;14.45;;;13.20;99.40;;;;;;4370560;32;20062;-59
2021/04/23 07:47:33;;;;;;;41.03;14.63;;;13.40;97.50;;;;;;4352508;32;20707;-59
2021/04/23 07:49:59;;;;;;;34.75;11.07;;;13.30;98.30;;;;;;4372026;32;20137;-58
2021/04/23 07:52:27;;;;;;;69.68;18.05;;;14.30;93.90;;;;;;4367476;32;20141;-59
2021/04/23 07:54:56;;;;;;;37.50;12.90;;;13.80;94.80;;;;;;4390347;32;20077;-58
2021/04/23 07:57:22;;;;;;;44.33;12.00;;;13.40;96.10;;;;;;4365935;32;20147;-59
2021/04/23 07:59:48;;;;;;;59.03;13.60;;;13.30;96.50;;;;;;4377979;32;20160;-59
2021/04/23 08:02:15;;;;;;;43.42;10.38;;;13.50;94.20;;;;;;4382247;32;20055;-59
2021/04/23 08:04:41;;;;;;;38.33;9.20;;;13.70;94.90;;;;;;4361010;32;20077;-59
2021/04/23 08:07:07;;;;;;;37.15;10.43;;;14.30;93.40;;;;;;4377105;32;20093;-59
2021/04/23 08:09:37;;;;;;;45.10;9.32;;;14.30;89.70;;;;;;4369169;32;20111;-60
2021/04/23 08:12:04;;;;;;;44.40;11.20;;;14.20;89.60;;;;;;4372527;32;20507;-60
2021/04/23 08:14:31;;;;;;;30.67;8.23;;;13.60;91.10;;;;;;4383853;32;20062;-60
2021/04/23 08:16:57;;;;;;;36.47;7.87;;;14.10;90.80;;;;;;4362482;32;20081;-59
2021/04/23 08:19:24;;;;;;;38.33;10.70;;;14.70;85.80;;;;;;4350217;32;20101;-61
2021/04/23 08:21:50;;;;;;;43.22;9.35;;;14.90;83.50;;;;;;4361176;32;20089;-59
2021/04/23 08:24:17;;;;;;;60.60;13.85;;;14.50;91.20;;;;;;4365474;32;20077;-60
2021/04/23 08:26:43;;;;;;;37.28;9.18;;;13.90;87.40;;;;;;4389604;32;20085;-60
2021/04/23 08:29:13;;;;;;;42.78;9.95;;;14.10;87.80;;;;;;4375970;32;20090;-59
2021/04/23 08:31:43;;;;;;;33.47;8.70;;;14.50;82.80;;;;;;4365534;32;20055;-60
2021/04/23 08:34:10;;;;;;;37.50;8.20;;;14.50;81.90;;;;;;4362599;32;20087;-58
2021/04/23 08:36:37;;;;;;;38.42;8.10;;;14.90;80.80;;;;;;4338060;32;20071;-60
2021/04/23 08:39:08;;;;;;;53.00;10.10;;;14.70;88.70;;;;;;4350513;32;20078;-59
2021/04/23 08:41:35;;;;;;;36.05;8.98;;;15.30;81.40;;;;;;4359471;32;20426;-59
2021/04/23 08:44:02;;;;;;;38.63;8.85;;;15.00;79.80;;;;;;4365370;32;20081;-60
2021/04/23 08:46:28;;;;;;;45.22;9.15;;;15.30;86.40;;;;;;4356199;32;20085;-60
2021/04/23 08:48:55;;;;;;;39.35;8.52;;;15.00;80.20;;;;;;4392548;32;20616;-65
2021/04/23 08:51:22;;;;;;;67.00;13.70;;;14.70;83.00;;;;;;4392457;32;20500;-59
2021/04/23 08:53:52;;;;;;;46.60;8.65;;;14.50;82.50;;;;;;4369595;32;20082;-60
2021/04/23 08:56:19;;;;;;;36.70;7.93;;;14.50;83.90;;;;;;4367986;32;20166;-59
2021/04/23 08:58:46;;;;;;;30.98;6.50;;;15.30;83.10;;;;;;4365268;32;20098;-58
2021/04/23 09:01:14;;;;;;;41.53;10.45;;;15.80;74.60;;;;;;4381105;32;20082;-61
2021/04/23 09:03:40;;;;;;;41.13;8.63;;;15.40;73.00;;;;;;4338586;32;20088;-59
2021/04/23 09:06:27;;;;;;;43.55;8.32;;;15.20;80.30;;;;;;4364277;32;20170;-58
2021/04/23 09:08:56;;;;;;;38.20;7.37;;;15.40;82.20;;;;;;4375643;32;20069;-59
2021/04/23 09:11:32;;;;;;;26.62;5.87;;;15.80;76.40;;;;;;4380007;32;20141;-58
2021/04/23 09:14:04;;;;;;;37.95;7.43;;;16.00;72.10;;;;;;4340608;32;20071;-59
2021/04/23 09:16:46;;;;;;;23.40;6.87;;;16.20;71.90;;;;;;4371876;32;20054;-59
2021/04/23 09:19:24;;;;;;;39.70;7.62;;;16.10;73.30;;;;;;4372530;32;20133;-58
2021/04/23 09:22:01;;;;;;;44.72;9.52;;;15.50;73.60;;;;;;4381874;32;20082;-59
2021/04/23 09:24:45;;;;;;;30.27;6.62;;;15.40;72.30;;;;;;4368607;32;20062;-58
2021/04/23 09:27:19;;;;;;;32.03;7.22;;;15.90;73.10;;;;;;4368136;32;20066;-58
2021/04/23 09:29:48;;;;;;;29.45;6.50;;;16.30;66.20;;;;;;4388665;32;20432;-57
2021/04/23 09:32:16;;;;;;;39.30;8.00;;;16.50;65.30;;;;;;4357706;32;20065;-58
2021/04/23 09:35:13;;;;;;;49.28;8.50;;;16.70;65.80;;;;;;4365167;32;20075;-58
2021/04/23 09:37:49;;;;;;;24.33;5.43;;;16.30;65.00;;;;;;4379157;32;20073;-57
2021/04/23 09:40:16;;;;;;;;;;;16.30;67.60;;;;;;4392372;32;20480;-58
2021/04/23 09:42:53;;;;;;;;;;;16.30;62.80;;;;;;4395840;32;19981;-58
2021/04/23 09:45:22;;;;;;;36.63;8.30;;;15.70;64.60;;;;;;4350908;32;20465;-59
2021/04/23 09:47:48;;;;;;;39.10;7.87;;;15.50;65.30;;;;;;4354729;32;20109;-61
2021/04/23 09:50:16;;;;;;;40.55;6.95;;;15.70;63.20;;;;;;4365795;32;20061;-59
2021/04/23 09:52:54;;;;;;;34.33;7.72;;;15.90;67.60;;;;;;4363330;32;20159;-57
2021/04/23 09:55:25;;;;;;;25.45;6.03;;;15.90;63.30;;;;;;4365105;32;20430;-57
2021/04/23 09:58:03;;;;;;;33.20;7.15;;;16.00;62.60;;;;;;4365318;32;20074;-58
2021/04/23 10:00:32;;;;;;;19.50;5.85;;;16.00;65.80;;;;;;4371179;32;20066;-56
2021/04/23 10:03:00;;;;;;;28.48;7.32;;;16.60;63.70;;;;;;4351451;32;20126;-58
2021/04/23 10:05:40;;;;;;;18.95;4.65;;;16.10;61.30;;;;;;4391927;32;20150;-61
2021/04/23 10:08:11;;;;;;;20.23;4.80;;;16.70;60.80;;;;;;4363692;32;20437;-59
2021/04/23 10:10:39;;;;;;;30.37;6.43;;;17.50;58.60;;;;;;4365005;32;20149;-57
2021/04/23 10:13:08;;;;;;;28.87;6.75;;;16.50;57.80;;;;;;4355561;32;20071;-58
2021/04/23 10:15:44;;;;;;;23.95;5.37;;;16.10;59.50;;;;;;4372214;32;20067;-56
2021/04/23 10:18:12;;;;;;;28.20;6.37;;;16.60;61.20;;;;;;4360552;32;20172;-59
2021/04/23 10:20:44;;;;;;;28.35;6.37;;;16.10;60.50;;;;;;4372765;32;20058;-56
2021/04/23 10:23:13;;;;;;;17.45;5.05;;;16.30;63.50;;;;;;4370098;32;20066;-57
2021/04/23 10:25:40;;;;;;;32.10;7.53;;;16.60;60.50;;;;;;4378968;32;20069;-58
2021/04/23 10:28:10;;;;;;;26.48;6.20;;;16.00;58.90;;;;;;4381095;32;20120;-57
2021/04/23 10:30:46;;;;;;;24.30;6.28;;;16.20;59.30;;;;;;4379158;32;20515;-58
2021/04/23 10:33:26;;;;;;;19.40;4.65;;;16.10;57.60;;;;;;4353227;32;20085;-58
2021/04/23 10:35:55;;;;;;;20.20;5.68;;;16.50;58.80;;;;;;4375723;32;20080;-57
2021/04/23 10:38:41;;;;;;;13.60;4.10;;;16.40;57.60;;;;;;4351334;32;20086;-58
2021/04/23 10:41:10;;;;;;;22.37;4.90;;;17.10;57.70;;;;;;4378832;32;20145;-58
2021/04/23 10:43:37;;;;;;;25.17;5.60;;;17.50;54.70;;;;;;4363948;32;20090;-58
2021/04/23 10:46:15;;;;;;;22.15;6.30;;;17.00;54.10;;;;;;4370932;32;20618;-59
2021/04/23 10:48:46;;;;;;;17.62;4.57;;;16.50;54.70;;;;;;4369596;32;20094;-57
2021/04/23 10:51:18;;;;;;;23.65;5.82;;;17.10;53.90;;;;;;4363157;32;20085;-56
2021/04/23 10:53:49;;;;;;;19.40;4.25;;;16.80;56.80;;;;;;4389329;32;20090;-58
2021/04/23 10:56:34;;;;;;;25.67;6.47;;;17.10;53.00;;;;;;4373931;32;20536;-60
2021/04/23 10:59:08;;;;;;;23.45;7.32;;;17.20;54.80;;;;;;4363186;32;20108;-57
2021/04/23 11:01:39;;;;;;;19.35;5.20;;;16.80;55.00;;;;;;4356313;32;20081;-59
2021/04/23 11:04:16;;;;;;;14.80;4.00;;;16.60;54.70;;;;;;4382605;32;20067;-58
2021/04/23 11:06:52;;;;;;;25.55;6.47;;;17.00;52.70;;;;;;4365095;32;20062;-57
2021/04/23 11:09:23;;;;;;;20.50;5.78;;;16.90;53.80;;;;;;4364001;32;20153;-59
2021/04/23 11:12:07;;;;;;;21.92;5.68;;;16.90;53.10;;;;;;4363376;32;20193;-60
2021/04/23 11:14:35;;;;;;;16.58;3.92;;;17.30;53.70;;;;;;4376547;32;20167;-60
2021/04/23 11:17:17;;;;;;;20.27;4.30;;;17.80;51.10;;;;;;4326699;32;20136;-59
2021/04/23 11:19:50;;;;;;;20.67;5.05;;;17.70;49.40;;;;;;4377276;32;20826;-59
2021/04/23 11:22:21;;;;;;;13.80;4.47;;;17.60;50.30;;;;;;4378147;32;20066;-57
2021/04/23 11:25:17;;;;;;;29.17;6.15;;;17.90;49.70;;;;;;4365364;32;20129;-61
2021/04/23 11:28:02;;;;;;;23.02;5.43;;;17.20;50.30;;;;;;4350888;32;20062;-59
2021/04/23 11:31:06;;;;;;;15.70;4.90;;;17.10;49.20;;;;;;4376262;32;20063;-58
2021/04/23 11:33:50;;;;;;;20.35;5.78;;;17.00;49.00;;;;;;4365660;32;20081;-59
2021/04/23 11:36:31;;;;;;;11.38;3.92;;;17.00;50.50;;;;;;4362791;32;20511;-57
2021/04/23 11:39:11;;;;;;;15.68;4.20;;;17.50;50.90;;;;;;4376126;32;20109;-59
2021/04/23 11:41:38;;;;;;;23.85;5.15;;;18.00;47.50;;;;;;4363866;32;20085;-60
2021/04/23 11:45:03;;;;;;;20.75;4.93;;;17.40;48.90;;;;;;4370996;32;20085;-57
2021/04/23 11:47:37;;;;;;;19.50;3.60;;;17.50;46.90;;;;;;4344785;33;20567;-56
2021/04/23 11:50:22;;;;;;;12.40;3.60;;;18.40;47.00;;;;;;4370285;32;20074;-60
2021/04/23 11:53:03;;;;;;;22.65;6.32;;;18.20;44.80;;;;;;4389670;32;20082;-59
2021/04/23 11:55:35;;;;;;;21.17;5.03;;;18.10;43.40;;;;;;4367061;32;20081;-56
2021/04/23 11:58:09;;;;;;;25.48;5.30;;;18.40;42.40;;;;;;4365053;32;20104;-59
2021/04/23 12:00:36;;;;;;;17.58;4.40;;;18.60;42.80;;;;;;4377363;32;20070;-56
2021/04/23 12:03:06;;;;;;;15.13;4.05;;;18.60;42.10;;;;;;4377485;32;20149;-58
2021/04/23 12:05:46;;;;;;;23.10;5.18;;;18.90;40.40;;;;;;4362329;32;20146;-59
2021/04/23 12:08:33;;;;;;;24.48;6.18;;;17.90;41.30;;;;;;4363695;32;20061;-61
2021/04/23 12:11:07;;;;;;;9.93;3.75;;;17.40;45.20;;;;;;4374769;32;20078;-58
2021/04/23 12:13:40;;;;;;;12.32;3.85;;;17.30;45.60;;;;;;4379243;32;20077;-59
2021/04/23 12:16:09;;;;;;;14.18;4.12;;;17.70;42.70;;;;;;4367218;32;20526;-59
2021/04/23 12:18:46;;;;;;;20.92;5.87;;;17.90;41.80;;;;;;4367359;32;20070;-59
2021/04/23 12:21:13;;;;;;;22.02;7.25;;;17.30;44.90;;;;;;4380628;32;20077;-59
2021/04/23 12:23:39;;;;;;;14.43;5.07;;;17.60;42.90;;;;;;4380723;32;20086;-57
2021/04/23 12:26:12;;;;;;;23.35;5.50;;;17.70;42.40;;;;;;4355594;32;20074;-61
2021/04/23 12:28:48;;;;;;;23.70;4.75;;;18.40;42.70;;;;;;4358000;32;20485;-59
2021/04/23 12:31:22;;;;;;;23.70;4.57;;;17.70;43.60;;;;;;4377598;32;20058;-62
2021/04/23 12:33:56;;;;;;;19.10;5.20;;;17.90;45.00;;;;;;4378713;32;20509;-59
2021/04/23 12:36:31;;;;;;;14.25;3.15;;;17.70;44.60;;;;;;4387348;32;20604;-59
2021/04/23 12:38:59;;;;;;;19.17;4.43;;;17.50;45.30;;;;;;4360907;32;20077;-58
2021/04/23 12:41:28;;;;;;;16.27;4.47;;;18.00;44.20;;;;;;4387784;32;20117;-59
2021/04/23 12:43:56;;;;;;;18.85;3.65;;;18.30;43.60;;;;;;4383871;32;20500;-62
2021/04/23 12:46:31;;;;;;;20.33;5.03;;;17.80;42.40;;;;;;4372090;32;20081;-58
2021/04/23 12:49:13;;;;;;;19.62;4.25;;;17.80;43.70;;;;;;4379553;32;20156;-60
2021/04/23 12:51:59;;;;;;;26.98;4.62;;;17.90;44.10;;;;;;4391324;32;20085;-58
2021/04/23 12:54:38;;;;;;;24.65;4.85;;;18.00;43.80;;;;;;4380065;32;20069;-56